Terminal Aerodrome Forecast
Issued by NWS Austin/San Antonio, TX

Home | Current Version | Previous Version | Text Only | Print | Product List | Glossary On
Versions: 1 2 3 4 5 6 7 8 9 10 11 12 13 14 15 16 17 18 19 20 21 22 23 24 25 26 27 28
000
FTUS44 KEWX 040245 AAA
TAFSAT
TAF AMD
KSAT 040245Z 0403/0506 08003KT 1/2SM -DZ FG OVC004
      TEMPO 0403/0407 1/4SM -DZ FG OVC001
     FM040900 15004KT 1SM -RA OVC002
     FM041400 11004KT 1/4SM FG OVC001 PROB30 0415/0421 3SM SHRA=

USA.gov is the U.S. government's official web portal to all federal, state and local government web resources and services.